createdAt,value
2023-02-02T14:12:50.465Z,28.90
2023-02-02T14:15:19.751Z,28.80
2023-02-02T14:17:48.749Z,28.90
2023-02-02T14:20:18.166Z,29.10
2023-02-02T14:22:47.274Z,29.20
2023-02-02T14:25:16.443Z,29.40
2023-02-02T14:27:45.510Z,29.50
2023-02-02T14:30:14.639Z,29.70
2023-02-02T14:32:43.829Z,29.80
2023-02-02T14:35:13.137Z,29.90
2023-02-02T14:37:42.543Z,30.00
2023-02-02T14:40:11.736Z,30.10
2023-02-02T14:42:42.595Z,30.10
2023-02-02T14:45:11.473Z,30.20
2023-02-02T14:47:40.775Z,30.20
2023-02-02T14:50:09.752Z,30.30
2023-02-02T14:52:38.958Z,30.30
2023-02-02T14:55:08.253Z,30.30
2023-02-02T14:57:37.247Z,30.30
2023-02-02T15:00:06.457Z,30.40
2023-02-02T15:02:35.794Z,30.40
2023-02-02T15:05:06.274Z,30.40
2023-02-02T15:07:35.270Z,30.40
2023-02-02T15:10:04.581Z,30.50
2023-02-02T15:12:33.464Z,30.50
2023-02-02T15:15:02.767Z,30.50
2023-02-02T15:17:32.071Z,30.50
2023-02-02T15:20:01.550Z,30.50
2023-02-02T15:22:30.971Z,30.50
2023-02-02T15:25:00.173Z,30.50
2023-02-02T22:05:45.254Z,28.50
2023-02-02T22:08:15.444Z,28.60
2023-02-02T22:10:44.566Z,28.70
2023-02-02T22:13:13.671Z,28.80
2023-02-02T22:15:42.677Z,28.90
2023-02-02T22:18:11.655Z,29.10
2023-02-02T22:20:40.640Z,29.20
2023-02-02T22:23:23.568Z,29.40
2023-02-02T22:25:52.563Z,29.50
2023-02-02T22:28:21.692Z,29.60
2023-02-02T22:30:51.111Z,29.70
2023-02-02T22:33:20.152Z,29.80
2023-02-02T22:35:49.225Z,29.90
2023-02-02T22:38:18.566Z,29.90
2023-02-02T22:40:47.767Z,30.00
2023-02-02T22:43:16.745Z,30.00
2023-02-02T22:45:45.947Z,30.10
2023-02-02T22:48:15.033Z,30.10
2023-02-02T22:50:44.031Z,30.10
2023-02-02T22:53:13.231Z,30.20
2023-02-02T22:55:42.547Z,30.20
